sensor_id;sensor_type;location;lat;lon;timestamp;temperature;humidity
67817;DHT22;54614;47.576;7.524;2022-10-31T00:01:35;27.80;61.00
67817;DHT22;54614;47.576;7.524;2022-10-31T00:04:03;27.80;60.90
67817;DHT22;54614;47.576;7.524;2022-10-31T00:06:30;27.80;61.00
67817;DHT22;54614;47.576;7.524;2022-10-31T00:08:58;27.80;61.10
67817;DHT22;54614;47.576;7.524;2022-10-31T00:11:26;27.70;60.90
67817;DHT22;54614;47.576;7.524;2022-10-31T00:13:52;27.70;61.10
67817;DHT22;54614;47.576;7.524;2022-10-31T00:16:21;27.70;61.10
67817;DHT22;54614;47.576;7.524;2022-10-31T00:18:54;27.70;60.90
67817;DHT22;54614;47.576;7.524;2022-10-31T00:21:21;27.70;61.00
67817;DHT22;54614;47.576;7.524;2022-10-31T00:23:48;27.70;61.00
67817;DHT22;54614;47.576;7.524;2022-10-31T00:26:14;27.70;61.20
67817;DHT22;54614;47.576;7.524;2022-10-31T00:28:40;27.70;61.10
67817;DHT22;54614;47.576;7.524;2022-10-31T00:31:09;27.70;60.90
67817;DHT22;54614;47.576;7.524;2022-10-31T00:33:38;27.80;60.90
67817;DHT22;54614;47.576;7.524;2022-10-31T00:36:06;27.70;60.90
67817;DHT22;54614;47.576;7.524;2022-10-31T00:38:33;27.70;61.00
67817;DHT22;54614;47.576;7.524;2022-10-31T00:40:59;27.70;61.20
67817;DHT22;54614;47.576;7.524;2022-10-31T00:43:25;27.70;61.30
67817;DHT22;54614;47.576;7.524;2022-10-31T00:45:51;27.70;61.10
67817;DHT22;54614;47.576;7.524;2022-10-31T00:48:16;27.70;61.10
67817;DHT22;54614;47.576;7.524;2022-10-31T00:50:42;27.70;61.10
67817;DHT22;54614;47.576;7.524;2022-10-31T00:53:08;27.70;61.10
67817;DHT22;54614;47.576;7.524;2022-10-31T00:55:34;27.70;61.00
67817;DHT22;54614;47.576;7.524;2022-10-31T00:57:59;27.80;61.90
67817;DHT22;54614;47.576;7.524;2022-10-31T01:00:26;27.70;61.00
67817;DHT22;54614;47.576;7.524;2022-10-31T01:02:52;27.70;60.90
67817;DHT22;54614;47.576;7.524;2022-10-31T01:05:18;27.70;60.90
67817;DHT22;54614;47.576;7.524;2022-10-31T01:07:44;27.70;60.80
67817;DHT22;54614;47.576;7.524;2022-10-31T01:10:11;27.70;60.90
67817;DHT22;54614;47.576;7.524;2022-10-31T01:12:43;27.70;60.90
67817;DHT22;54614;47.576;7.524;2022-10-31T01:15:12;27.70;60.90
67817;DHT22;54614;47.576;7.524;2022-10-31T01:17:39;27.70;60.90
67817;DHT22;54614;47.576;7.524;2022-10-31T01:20:13;27.70;61.00
67817;DHT22;54614;47.576;7.524;2022-10-31T01:22:40;27.70;60.90
67817;DHT22;54614;47.576;7.524;2022-10-31T01:25:07;27.70;60.90
67817;DHT22;54614;47.576;7.524;2022-10-31T01:27:34;27.70;60.80
67817;DHT22;54614;47.576;7.524;2022-10-31T01:30:00;27.70;60.80
67817;DHT22;54614;47.576;7.524;2022-10-31T01:32:27;27.70;60.80
67817;DHT22;54614;47.576;7.524;2022-10-31T01:34:56;27.70;60.70
67817;DHT22;54614;47.576;7.524;2022-10-31T01:37:22;27.70;60.80
67817;DHT22;54614;47.576;7.524;2022-10-31T01:39:48;27.70;60.80
67817;DHT22;54614;47.576;7.524;2022-10-31T01:42:19;27.70;60.80
67817;DHT22;54614;47.576;7.524;2022-10-31T01:47:46;27.70;60.60
67817;DHT22;54614;47.576;7.524;2022-10-31T01:50:28;27.70;60.60
67817;DHT22;54614;47.576;7.524;2022-10-31T01:52:58;27.70;60.70
67817;DHT22;54614;47.576;7.524;2022-10-31T01:55:30;27.70;60.60
67817;DHT22;54614;47.576;7.524;2022-10-31T01:58:06;27.70;60.60
67817;DHT22;54614;47.576;7.524;2022-10-31T02:00:34;27.70;60.60
67817;DHT22;54614;47.576;7.524;2022-10-31T02:03:00;27.70;60.80
67817;DHT22;54614;47.576;7.524;2022-10-31T02:05:28;27.60;60.70
67817;DHT22;54614;47.576;7.524;2022-10-31T02:07:59;27.70;60.60
67817;DHT22;54614;47.576;7.524;2022-10-31T02:10:32;27.60;60.60
67817;DHT22;54614;47.576;7.524;2022-10-31T02:13:02;27.60;60.60
67817;DHT22;54614;47.576;7.524;2022-10-31T02:15:31;27.60;60.60
67817;DHT22;54614;47.576;7.524;2022-10-31T02:17:58;27.60;60.60
67817;DHT22;54614;47.576;7.524;2022-10-31T02:20:29;27.60;60.60
67817;DHT22;54614;47.576;7.524;2022-10-31T02:34:39;27.60;60.50
67817;DHT22;54614;47.576;7.524;2022-10-31T02:48:48;27.60;61.30
67817;DHT22;54614;47.576;7.524;2022-10-31T02:51:18;27.60;60.50
67817;DHT22;54614;47.576;7.524;2022-10-31T02:53:45;27.60;60.60
67817;DHT22;54614;47.576;7.524;2022-10-31T02:56:16;27.60;60.70
67817;DHT22;54614;47.576;7.524;2022-10-31T02:58:51;27.60;60.50
67817;DHT22;54614;47.576;7.524;2022-10-31T03:10:04;27.60;60.50
67817;DHT22;54614;47.576;7.524;2022-10-31T03:13:08;27.60;60.50
67817;DHT22;54614;47.576;7.524;2022-10-31T03:15:45;27.60;60.50
67817;DHT22;54614;47.576;7.524;2022-10-31T03:18:17;27.60;60.50
67817;DHT22;54614;47.576;7.524;2022-10-31T03:21:06;27.60;60.60
67817;DHT22;54614;47.576;7.524;2022-10-31T03:23:39;27.60;60.60
67817;DHT22;54614;47.576;7.524;2022-10-31T03:26:08;27.50;60.60
67817;DHT22;54614;47.576;7.524;2022-10-31T03:28:45;27.60;60.60
67817;DHT22;54614;47.576;7.524;2022-10-31T03:31:18;27.50;60.60
67817;DHT22;54614;47.576;7.524;2022-10-31T03:33:49;27.50;60.70
67817;DHT22;54614;47.576;7.524;2022-10-31T03:36:18;27.50;60.60
67817;DHT22;54614;47.576;7.524;2022-10-31T03:38:45;27.50;60.60
67817;DHT22;54614;47.576;7.524;2022-10-31T03:41:19;27.50;60.50
67817;DHT22;54614;47.576;7.524;2022-10-31T03:44:02;27.60;60.50
67817;DHT22;54614;47.576;7.524;2022-10-31T03:46:40;27.60;60.60
67817;DHT22;54614;47.576;7.524;2022-10-31T03:49:08;27.50;60.60
67817;DHT22;54614;47.576;7.524;2022-10-31T03:51:57;27.50;60.50
67817;DHT22;54614;47.576;7.524;2022-10-31T03:54:44;27.50;60.50
67817;DHT22;54614;47.576;7.524;2022-10-31T04:00:14;27.50;60.40
67817;DHT22;54614;47.576;7.524;2022-10-31T04:02:50;27.50;60.40
67817;DHT22;54614;47.576;7.524;2022-10-31T04:05:21;27.50;60.40
67817;DHT22;54614;47.576;7.524;2022-10-31T04:07:53;27.50;60.50
67817;DHT22;54614;47.576;7.524;2022-10-31T04:10:23;27.50;60.50
67817;DHT22;54614;47.576;7.524;2022-10-31T04:12:57;27.50;60.40
67817;DHT22;54614;47.576;7.524;2022-10-31T04:15:29;27.50;60.40
67817;DHT22;54614;47.576;7.524;2022-10-31T04:17:58;27.50;60.30
67817;DHT22;54614;47.576;7.524;2022-10-31T04:20:39;27.50;60.40
67817;DHT22;54614;47.576;7.524;2022-10-31T04:23:24;27.50;60.40
67817;DHT22;54614;47.576;7.524;2022-10-31T04:25:51;27.50;60.40
67817;DHT22;54614;47.576;7.524;2022-10-31T04:28:17;27.50;60.50
67817;DHT22;54614;47.576;7.524;2022-10-31T04:30:43;27.50;60.50
67817;DHT22;54614;47.576;7.524;2022-10-31T04:33:09;27.50;60.50
67817;DHT22;54614;47.576;7.524;2022-10-31T04:35:35;27.30;60.50
67817;DHT22;54614;47.576;7.524;2022-10-31T04:38:01;27.50;60.50
67817;DHT22;54614;47.576;7.524;2022-10-31T04:40:27;27.50;60.40
67817;DHT22;54614;47.576;7.524;2022-10-31T04:42:53;27.50;60.40
67817;DHT22;54614;47.576;7.524;2022-10-31T04:45:20;27.40;60.40
67817;DHT22;54614;47.576;7.524;2022-10-31T04:47:46;27.50;60.50
67817;DHT22;54614;47.576;7.524;2022-10-31T04:50:11;27.40;60.50
67817;DHT22;54614;47.576;7.524;2022-10-31T04:52:45;27.40;60.40
67817;DHT22;54614;47.576;7.524;2022-10-31T04:55:12;27.40;60.30
67817;DHT22;54614;47.576;7.524;2022-10-31T04:57:44;27.40;60.40
67817;DHT22;54614;47.576;7.524;2022-10-31T05:00:13;27.50;60.40
67817;DHT22;54614;47.576;7.524;2022-10-31T05:02:51;27.50;60.40
67817;DHT22;54614;47.576;7.524;2022-10-31T05:05:20;27.40;60.30
67817;DHT22;54614;47.576;7.524;2022-10-31T05:07:48;27.40;60.30
67817;DHT22;54614;47.576;7.524;2022-10-31T05:10:20;27.40;60.40
67817;DHT22;54614;47.576;7.524;2022-10-31T05:12:59;27.40;60.30
67817;DHT22;54614;47.576;7.524;2022-10-31T05:15:27;27.40;60.30
67817;DHT22;54614;47.576;7.524;2022-10-31T05:17:54;27.40;60.60
67817;DHT22;54614;47.576;7.524;2022-10-31T05:20:23;27.30;61.00
67817;DHT22;54614;47.576;7.524;2022-10-31T05:22:52;27.40;60.90
67817;DHT22;54614;47.576;7.524;2022-10-31T05:25:21;27.40;61.10
67817;DHT22;54614;47.576;7.524;2022-10-31T05:27:50;27.40;60.80
67817;DHT22;54614;47.576;7.524;2022-10-31T05:30:20;27.30;60.60
67817;DHT22;54614;47.576;7.524;2022-10-31T05:32:49;27.30;60.70
67817;DHT22;54614;47.576;7.524;2022-10-31T05:35:22;27.40;60.70
67817;DHT22;54614;47.576;7.524;2022-10-31T05:37:58;27.30;60.70
67817;DHT22;54614;47.576;7.524;2022-10-31T05:40:25;27.30;60.60
67817;DHT22;54614;47.576;7.524;2022-10-31T05:42:53;27.30;60.60
67817;DHT22;54614;47.576;7.524;2022-10-31T05:45:21;27.30;60.60
67817;DHT22;54614;47.576;7.524;2022-10-31T05:50:17;27.30;62.10
67817;DHT22;54614;47.576;7.524;2022-10-31T05:52:43;27.30;62.20
67817;DHT22;54614;47.576;7.524;2022-10-31T05:55:09;27.40;62.00
67817;DHT22;54614;47.576;7.524;2022-10-31T05:57:34;27.50;61.70
67817;DHT22;54614;47.576;7.524;2022-10-31T06:00:00;27.50;61.60
67817;DHT22;54614;47.576;7.524;2022-10-31T06:02:26;27.50;61.60
67817;DHT22;54614;47.576;7.524;2022-10-31T06:04:52;27.50;61.70
67817;DHT22;54614;47.576;7.524;2022-10-31T06:07:18;27.50;61.60
67817;DHT22;54614;47.576;7.524;2022-10-31T06:09:43;27.50;61.40
67817;DHT22;54614;47.576;7.524;2022-10-31T06:12:09;27.30;62.10
67817;DHT22;54614;47.576;7.524;2022-10-31T06:14:35;27.30;62.80
67817;DHT22;54614;47.576;7.524;2022-10-31T06:17:01;27.40;62.30
67817;DHT22;54614;47.576;7.524;2022-10-31T06:19:27;27.50;61.70
67817;DHT22;54614;47.576;7.524;2022-10-31T06:21:53;27.50;61.60
67817;DHT22;54614;47.576;7.524;2022-10-31T06:24:18;27.60;61.30
67817;DHT22;54614;47.576;7.524;2022-10-31T06:27:02;27.60;61.30
67817;DHT22;54614;47.576;7.524;2022-10-31T06:29:28;27.60;61.10
67817;DHT22;54614;47.576;7.524;2022-10-31T06:31:54;27.60;61.10
67817;DHT22;54614;47.576;7.524;2022-10-31T06:34:20;27.60;60.90
67817;DHT22;54614;47.576;7.524;2022-10-31T06:36:46;27.60;61.20
67817;DHT22;54614;47.576;7.524;2022-10-31T06:39:12;27.60;61.10
67817;DHT22;54614;47.576;7.524;2022-10-31T06:41:38;27.60;61.00
67817;DHT22;54614;47.576;7.524;2022-10-31T06:44:06;27.60;61.00
67817;DHT22;54614;47.576;7.524;2022-10-31T06:46:32;27.60;61.00
67817;DHT22;54614;47.576;7.524;2022-10-31T06:48:59;27.50;61.30
67817;DHT22;54614;47.576;7.524;2022-10-31T06:51:25;27.50;61.50
67817;DHT22;54614;47.576;7.524;2022-10-31T06:53:50;27.40;61.90
67817;DHT22;54614;47.576;7.524;2022-10-31T06:56:16;27.50;61.80
67817;DHT22;54614;47.576;7.524;2022-10-31T06:58:42;27.50;61.80
67817;DHT22;54614;47.576;7.524;2022-10-31T07:01:08;27.50;70.50
67817;DHT22;54614;47.576;7.524;2022-10-31T07:03:34;27.50;68.40
67817;DHT22;54614;47.576;7.524;2022-10-31T07:06:00;27.50;66.50
67817;DHT22;54614;47.576;7.524;2022-10-31T07:08:25;27.50;65.60
67817;DHT22;54614;47.576;7.524;2022-10-31T07:10:56;27.50;65.20
67817;DHT22;54614;47.576;7.524;2022-10-31T07:13:23;27.60;64.90
67817;DHT22;54614;47.576;7.524;2022-10-31T07:15:54;27.60;64.40
67817;DHT22;54614;47.576;7.524;2022-10-31T07:18:24;27.60;63.90
67817;DHT22;54614;47.576;7.524;2022-10-31T07:20:51;27.70;63.00
67817;DHT22;54614;47.576;7.524;2022-10-31T07:23:18;27.70;62.60
67817;DHT22;54614;47.576;7.524;2022-10-31T07:25:44;27.70;62.30
67817;DHT22;54614;47.576;7.524;2022-10-31T07:28:10;27.70;62.10
67817;DHT22;54614;47.576;7.524;2022-10-31T07:30:37;27.60;62.20
67817;DHT22;54614;47.576;7.524;2022-10-31T07:33:04;27.50;61.90
67817;DHT22;54614;47.576;7.524;2022-10-31T07:35:31;27.40;62.20
67817;DHT22;54614;47.576;7.524;2022-10-31T07:38:07;27.50;62.30
67817;DHT22;54614;47.576;7.524;2022-10-31T07:40:36;27.40;62.30
67817;DHT22;54614;47.576;7.524;2022-10-31T07:43:01;27.40;62.40
67817;DHT22;54614;47.576;7.524;2022-10-31T07:45:27;27.30;62.40
67817;DHT22;54614;47.576;7.524;2022-10-31T07:47:53;27.40;62.40
67817;DHT22;54614;47.576;7.524;2022-10-31T07:50:27;27.30;62.10
67817;DHT22;54614;47.576;7.524;2022-10-31T07:53:10;27.40;62.10
67817;DHT22;54614;47.576;7.524;2022-10-31T07:55:38;27.50;61.80
67817;DHT22;54614;47.576;7.524;2022-10-31T07:58:12;27.60;61.90
67817;DHT22;54614;47.576;7.524;2022-10-31T08:00:41;27.60;61.60
67817;DHT22;54614;47.576;7.524;2022-10-31T08:03:14;27.60;61.60
67817;DHT22;54614;47.576;7.524;2022-10-31T08:05:42;27.60;61.60
67817;DHT22;54614;47.576;7.524;2022-10-31T08:08:10;27.60;61.50
67817;DHT22;54614;47.576;7.524;2022-10-31T08:10:36;27.60;61.50
67817;DHT22;54614;47.576;7.524;2022-10-31T08:13:08;27.60;61.50
67817;DHT22;54614;47.576;7.524;2022-10-31T08:15:36;27.50;61.50
67817;DHT22;54614;47.576;7.524;2022-10-31T08:18:05;27.60;61.50
67817;DHT22;54614;47.576;7.524;2022-10-31T08:20:32;27.60;61.40
67817;DHT22;54614;47.576;7.524;2022-10-31T08:23:00;27.60;61.70
67817;DHT22;54614;47.576;7.524;2022-10-31T08:25:30;27.60;61.40
67817;DHT22;54614;47.576;7.524;2022-10-31T08:27:57;27.60;61.50
67817;DHT22;54614;47.576;7.524;2022-10-31T08:30:26;27.60;61.50
67817;DHT22;54614;47.576;7.524;2022-10-31T08:33:14;27.60;61.50
67817;DHT22;54614;47.576;7.524;2022-10-31T08:35:42;27.60;61.30
67817;DHT22;54614;47.576;7.524;2022-10-31T08:38:10;27.40;61.50
67817;DHT22;54614;47.576;7.524;2022-10-31T08:40:37;27.40;61.30
67817;DHT22;54614;47.576;7.524;2022-10-31T08:43:14;27.30;61.30
67817;DHT22;54614;47.576;7.524;2022-10-31T08:45:42;27.30;61.50
67817;DHT22;54614;47.576;7.524;2022-10-31T08:48:14;27.20;61.80
67817;DHT22;54614;47.576;7.524;2022-10-31T08:50:42;27.30;61.60
67817;DHT22;54614;47.576;7.524;2022-10-31T08:53:16;27.20;61.60
67817;DHT22;54614;47.576;7.524;2022-10-31T08:55:46;27.20;61.60
67817;DHT22;54614;47.576;7.524;2022-10-31T08:58:18;27.30;61.50
67817;DHT22;54614;47.576;7.524;2022-10-31T09:00:46;27.30;61.30
67817;DHT22;54614;47.576;7.524;2022-10-31T09:03:16;27.30;61.50
67817;DHT22;54614;47.576;7.524;2022-10-31T09:05:43;27.20;61.60
67817;DHT22;54614;47.576;7.524;2022-10-31T09:08:11;27.30;61.70
67817;DHT22;54614;47.576;7.524;2022-10-31T09:10:38;27.30;61.40
67817;DHT22;54614;47.576;7.524;2022-10-31T09:13:12;27.30;61.50
67817;DHT22;54614;47.576;7.524;2022-10-31T09:15:41;27.30;61.50
67817;DHT22;54614;47.576;7.524;2022-10-31T09:18:10;27.30;61.40
67817;DHT22;54614;47.576;7.524;2022-10-31T09:20:37;27.40;61.30
67817;DHT22;54614;47.576;7.524;2022-10-31T09:23:13;27.30;62.20
67817;DHT22;54614;47.576;7.524;2022-10-31T09:25:40;27.10;62.50
67817;DHT22;54614;47.576;7.524;2022-10-31T09:28:11;27.10;62.50
67817;DHT22;54614;47.576;7.524;2022-10-31T09:30:38;27.10;62.20
67817;DHT22;54614;47.576;7.524;2022-10-31T09:33:06;27.20;62.00
67817;DHT22;54614;47.576;7.524;2022-10-31T09:35:35;27.20;61.80
67817;DHT22;54614;47.576;7.524;2022-10-31T09:38:08;27.30;61.70
67817;DHT22;54614;47.576;7.524;2022-10-31T09:52:23;27.50;61.90
67817;DHT22;54614;47.576;7.524;2022-10-31T09:55:08;27.50;61.10
67817;DHT22;54614;47.576;7.524;2022-10-31T09:57:39;27.50;61.40
67817;DHT22;54614;47.576;7.524;2022-10-31T10:00:14;27.50;61.20
67817;DHT22;54614;47.576;7.524;2022-10-31T10:02:57;27.40;61.90
67817;DHT22;54614;47.576;7.524;2022-10-31T10:05:44;27.60;61.60
67817;DHT22;54614;47.576;7.524;2022-10-31T10:08:20;27.70;61.30
67817;DHT22;54614;47.576;7.524;2022-10-31T10:10:53;27.70;62.80
67817;DHT22;54614;47.576;7.524;2022-10-31T10:25:40;27.20;66.40
67817;DHT22;54614;47.576;7.524;2022-10-31T10:28:20;27.20;69.30
67817;DHT22;54614;47.576;7.524;2022-10-31T10:30:59;27.30;72.50
67817;DHT22;54614;47.576;7.524;2022-10-31T10:33:39;27.40;71.50
67817;DHT22;54614;47.576;7.524;2022-10-31T10:36:14;27.30;70.70
67817;DHT22;54614;47.576;7.524;2022-10-31T10:38:51;27.70;66.70
67817;DHT22;54614;47.576;7.524;2022-10-31T10:41:22;27.90;65.50
67817;DHT22;54614;47.576;7.524;2022-10-31T10:43:50;28.00;65.10
67817;DHT22;54614;47.576;7.524;2022-10-31T10:46:18;28.00;64.70
67817;DHT22;54614;47.576;7.524;2022-10-31T10:51:42;28.10;64.10
67817;DHT22;54614;47.576;7.524;2022-10-31T10:59:39;28.10;64.20
67817;DHT22;54614;47.576;7.524;2022-10-31T11:02:17;28.10;64.90
67817;DHT22;54614;47.576;7.524;2022-10-31T11:04:49;28.00;65.50
67817;DHT22;54614;47.576;7.524;2022-10-31T11:07:17;28.00;66.20
67817;DHT22;54614;47.576;7.524;2022-10-31T11:09:43;27.80;67.50
67817;DHT22;54614;47.576;7.524;2022-10-31T11:12:21;27.50;68.10
67817;DHT22;54614;47.576;7.524;2022-10-31T11:14:54;27.70;66.20
67817;DHT22;54614;47.576;7.524;2022-10-31T11:17:34;28.00;65.10
67817;DHT22;54614;47.576;7.524;2022-10-31T11:22:29;28.20;64.50
67817;DHT22;54614;47.576;7.524;2022-10-31T11:24:54;28.20;64.70
67817;DHT22;54614;47.576;7.524;2022-10-31T11:27:22;28.10;64.80
67817;DHT22;54614;47.576;7.524;2022-10-31T11:29:50;28.20;64.60
67817;DHT22;54614;47.576;7.524;2022-10-31T11:32:24;28.30;64.20
67817;DHT22;54614;47.576;7.524;2022-10-31T11:34:54;28.30;64.00
67817;DHT22;54614;47.576;7.524;2022-10-31T11:37:29;28.40;64.00
67817;DHT22;54614;47.576;7.524;2022-10-31T11:40:03;28.50;63.90
67817;DHT22;54614;47.576;7.524;2022-10-31T11:42:41;28.60;63.90
67817;DHT22;54614;47.576;7.524;2022-10-31T11:45:15;28.60;63.70
67817;DHT22;54614;47.576;7.524;2022-10-31T11:47:47;28.70;64.40
67817;DHT22;54614;47.576;7.524;2022-10-31T11:50:36;28.60;63.50
67817;DHT22;54614;47.576;7.524;2022-10-31T11:53:16;28.70;63.60
67817;DHT22;54614;47.576;7.524;2022-10-31T11:56:05;28.70;63.50
67817;DHT22;54614;47.576;7.524;2022-10-31T11:58:41;28.40;64.20
67817;DHT22;54614;47.576;7.524;2022-10-31T12:01:26;28.20;64.60
67817;DHT22;54614;47.576;7.524;2022-10-31T12:04:04;27.90;64.50
67817;DHT22;54614;47.576;7.524;2022-10-31T12:06:34;27.90;64.40
67817;DHT22;54614;47.576;7.524;2022-10-31T12:09:07;28.20;64.20
67817;DHT22;54614;47.576;7.524;2022-10-31T12:11:51;28.30;64.40
67817;DHT22;54614;47.576;7.524;2022-10-31T12:14:52;28.30;64.70
67817;DHT22;54614;47.576;7.524;2022-10-31T12:17:58;28.30;65.00
67817;DHT22;54614;47.576;7.524;2022-10-31T12:28:50;28.60;63.80
67817;DHT22;54614;47.576;7.524;2022-10-31T12:31:57;28.50;64.00
67817;DHT22;54614;47.576;7.524;2022-10-31T12:52:23;28.50;63.60
67817;DHT22;54614;47.576;7.524;2022-10-31T12:58:36;28.60;63.60
67817;DHT22;54614;47.576;7.524;2022-10-31T13:01:32;28.60;64.00
67817;DHT22;54614;47.576;7.524;2022-10-31T13:04:16;28.60;63.70
67817;DHT22;54614;47.576;7.524;2022-10-31T13:06:55;28.60;63.60
67817;DHT22;54614;47.576;7.524;2022-10-31T13:12:27;28.60;63.50
67817;DHT22;54614;47.576;7.524;2022-10-31T13:17:57;28.60;63.60
67817;DHT22;54614;47.576;7.524;2022-10-31T13:20:30;28.60;63.40
67817;DHT22;54614;47.576;7.524;2022-10-31T13:23:26;28.60;63.40
67817;DHT22;54614;47.576;7.524;2022-10-31T13:25:56;28.60;63.40
67817;DHT22;54614;47.576;7.524;2022-10-31T13:28:50;28.60;63.50
67817;DHT22;54614;47.576;7.524;2022-10-31T13:31:22;28.60;63.40
67817;DHT22;54614;47.576;7.524;2022-10-31T13:33:56;28.60;63.30
67817;DHT22;54614;47.576;7.524;2022-10-31T13:42:49;28.40;63.10
67817;DHT22;54614;47.576;7.524;2022-10-31T13:45:23;28.40;63.10
67817;DHT22;54614;47.576;7.524;2022-10-31T13:48:18;28.30;63.00
67817;DHT22;54614;47.576;7.524;2022-10-31T13:51:00;28.30;63.10
67817;DHT22;54614;47.576;7.524;2022-10-31T13:58:34;28.20;64.20
67817;DHT22;54614;47.576;7.524;2022-10-31T14:03:38;28.00;64.50
67817;DHT22;54614;47.576;7.524;2022-10-31T14:06:08;27.90;64.60
67817;DHT22;54614;47.576;7.524;2022-10-31T14:08:40;27.70;65.10
67817;DHT22;54614;47.576;7.524;2022-10-31T14:11:24;27.70;65.50
67817;DHT22;54614;47.576;7.524;2022-10-31T14:13:55;27.60;65.40
67817;DHT22;54614;47.576;7.524;2022-10-31T14:16:31;27.60;65.60
67817;DHT22;54614;47.576;7.524;2022-10-31T14:19:01;27.40;66.10
67817;DHT22;54614;47.576;7.524;2022-10-31T14:21:44;27.40;66.50
67817;DHT22;54614;47.576;7.524;2022-10-31T14:26:59;27.60;66.40
67817;DHT22;54614;47.576;7.524;2022-10-31T14:29:55;27.60;66.40
67817;DHT22;54614;47.576;7.524;2022-10-31T14:32:25;27.60;66.30
67817;DHT22;54614;47.576;7.524;2022-10-31T14:34:55;27.50;66.50
67817;DHT22;54614;47.576;7.524;2022-10-31T14:40:25;27.60;66.20
67817;DHT22;54614;47.576;7.524;2022-10-31T14:46:04;27.70;65.90
67817;DHT22;54614;47.576;7.524;2022-10-31T14:51:44;28.10;65.30
67817;DHT22;54614;47.576;7.524;2022-10-31T14:54:16;28.50;63.90
67817;DHT22;54614;47.576;7.524;2022-10-31T14:56:54;28.60;63.50
67817;DHT22;54614;47.576;7.524;2022-10-31T14:59:32;28.60;63.80
67817;DHT22;54614;47.576;7.524;2022-10-31T15:05:11;28.70;63.50
67817;DHT22;54614;47.576;7.524;2022-10-31T15:07:52;28.80;63.10
67817;DHT22;54614;47.576;7.524;2022-10-31T15:10:26;28.70;63.20
67817;DHT22;54614;47.576;7.524;2022-10-31T15:13:09;28.80;63.00
67817;DHT22;54614;47.576;7.524;2022-10-31T15:15:37;28.80;63.10
67817;DHT22;54614;47.576;7.524;2022-10-31T15:18:04;28.80;63.40
67817;DHT22;54614;47.576;7.524;2022-10-31T15:20:38;28.80;63.10
67817;DHT22;54614;47.576;7.524;2022-10-31T15:23:20;28.70;63.40
67817;DHT22;54614;47.576;7.524;2022-10-31T15:25:48;28.80;63.20
67817;DHT22;54614;47.576;7.524;2022-10-31T15:28:27;28.70;63.00
67817;DHT22;54614;47.576;7.524;2022-10-31T15:30:55;28.80;63.10
67817;DHT22;54614;47.576;7.524;2022-10-31T15:33:25;28.80;63.20
67817;DHT22;54614;47.576;7.524;2022-10-31T15:35:57;28.80;63.30
67817;DHT22;54614;47.576;7.524;2022-10-31T15:38:25;28.70;62.90
67817;DHT22;54614;47.576;7.524;2022-10-31T15:40:55;28.70;63.10
67817;DHT22;54614;47.576;7.524;2022-10-31T15:43:25;28.60;63.10
67817;DHT22;54614;47.576;7.524;2022-10-31T15:45:52;28.60;63.40
67817;DHT22;54614;47.576;7.524;2022-10-31T15:48:22;28.60;63.50
67817;DHT22;54614;47.576;7.524;2022-10-31T15:50:56;28.60;63.40
67817;DHT22;54614;47.576;7.524;2022-10-31T15:53:49;28.50;63.50
67817;DHT22;54614;47.576;7.524;2022-10-31T15:56:22;28.50;63.30
67817;DHT22;54614;47.576;7.524;2022-10-31T15:58:52;28.70;63.40
67817;DHT22;54614;47.576;7.524;2022-10-31T16:07:01;28.50;64.10
67817;DHT22;54614;47.576;7.524;2022-10-31T16:09:36;28.40;63.90
67817;DHT22;54614;47.576;7.524;2022-10-31T16:12:03;28.40;64.50
67817;DHT22;54614;47.576;7.524;2022-10-31T16:14:31;28.50;64.30
67817;DHT22;54614;47.576;7.524;2022-10-31T16:17:04;28.40;64.20
67817;DHT22;54614;47.576;7.524;2022-10-31T16:22:09;28.40;64.80
67817;DHT22;54614;47.576;7.524;2022-10-31T16:27:34;28.30;64.70
67817;DHT22;54614;47.576;7.524;2022-10-31T16:32:58;28.10;66.30
67817;DHT22;54614;47.576;7.524;2022-10-31T16:35:34;27.80;66.40
67817;DHT22;54614;47.576;7.524;2022-10-31T16:38:01;27.90;65.90
67817;DHT22;54614;47.576;7.524;2022-10-31T16:40:27;27.90;65.90
67817;DHT22;54614;47.576;7.524;2022-10-31T16:42:57;28.10;65.30
67817;DHT22;54614;47.576;7.524;2022-10-31T16:45:26;28.30;64.80
67817;DHT22;54614;47.576;7.524;2022-10-31T16:48:11;28.40;64.50
67817;DHT22;54614;47.576;7.524;2022-10-31T16:50:41;28.40;64.10
67817;DHT22;54614;47.576;7.524;2022-10-31T16:53:09;28.30;64.50
67817;DHT22;54614;47.576;7.524;2022-10-31T16:55:50;28.40;64.60
67817;DHT22;54614;47.576;7.524;2022-10-31T16:58:32;28.40;64.40
67817;DHT22;54614;47.576;7.524;2022-10-31T17:01:01;28.30;64.40
67817;DHT22;54614;47.576;7.524;2022-10-31T17:03:29;28.30;64.40
67817;DHT22;54614;47.576;7.524;2022-10-31T17:05:56;28.30;64.80
67817;DHT22;54614;47.576;7.524;2022-10-31T17:08:22;28.30;64.50
67817;DHT22;54614;47.576;7.524;2022-10-31T17:10:54;28.30;64.30
67817;DHT22;54614;47.576;7.524;2022-10-31T17:13:24;28.20;64.10
67817;DHT22;54614;47.576;7.524;2022-10-31T17:15:55;28.20;64.30
67817;DHT22;54614;47.576;7.524;2022-10-31T17:18:23;28.10;64.20
67817;DHT22;54614;47.576;7.524;2022-10-31T17:20:50;28.10;64.20
67817;DHT22;54614;47.576;7.524;2022-10-31T17:23:16;28.20;64.00
67817;DHT22;54614;47.576;7.524;2022-10-31T17:25:42;28.10;63.90
67817;DHT22;54614;47.576;7.524;2022-10-31T17:28:13;28.00;63.80
67817;DHT22;54614;47.576;7.524;2022-10-31T17:30:42;28.00;63.90
67817;DHT22;54614;47.576;7.524;2022-10-31T17:33:12;28.00;63.90
67817;DHT22;54614;47.576;7.524;2022-10-31T17:35:40;28.00;63.80
67817;DHT22;54614;47.576;7.524;2022-10-31T17:38:06;28.00;63.70
67817;DHT22;54614;47.576;7.524;2022-10-31T17:40:32;28.00;63.70
67817;DHT22;54614;47.576;7.524;2022-10-31T17:42:58;28.00;63.80
67817;DHT22;54614;47.576;7.524;2022-10-31T17:45:25;28.00;63.60
67817;DHT22;54614;47.576;7.524;2022-10-31T17:47:52;27.90;63.60
67817;DHT22;54614;47.576;7.524;2022-10-31T17:50:20;28.00;63.50
67817;DHT22;54614;47.576;7.524;2022-10-31T17:52:48;28.00;63.50
67817;DHT22;54614;47.576;7.524;2022-10-31T17:55:14;27.90;63.50
67817;DHT22;54614;47.576;7.524;2022-10-31T17:57:41;27.90;63.50
67817;DHT22;54614;47.576;7.524;2022-10-31T18:00:11;27.90;63.60
67817;DHT22;54614;47.576;7.524;2022-10-31T18:02:39;27.90;63.50
67817;DHT22;54614;47.576;7.524;2022-10-31T18:05:05;27.90;63.60
67817;DHT22;54614;47.576;7.524;2022-10-31T18:07:32;27.90;63.40
67817;DHT22;54614;47.576;7.524;2022-10-31T18:09:58;27.90;63.50
67817;DHT22;54614;47.576;7.524;2022-10-31T18:12:25;27.90;63.50
67817;DHT22;54614;47.576;7.524;2022-10-31T18:14:53;27.90;63.40
67817;DHT22;54614;47.576;7.524;2022-10-31T18:17:19;27.90;63.40
67817;DHT22;54614;47.576;7.524;2022-10-31T18:19:46;27.80;63.40
67817;DHT22;54614;47.576;7.524;2022-10-31T18:22:12;27.80;63.50
67817;DHT22;54614;47.576;7.524;2022-10-31T18:24:38;27.90;63.60
67817;DHT22;54614;47.576;7.524;2022-10-31T18:27:04;27.80;63.50
67817;DHT22;54614;47.576;7.524;2022-10-31T18:29:30;27.80;63.40